sensor_id;sensor_type;location;lat;lon;timestamp;temperature;humidity
612;DHT22;293;53.888;11.464;2023-02-26T00:00:04;2.50;98.90
612;DHT22;293;53.888;11.464;2023-02-26T00:02:36;2.60;98.90
612;DHT22;293;53.888;11.464;2023-02-26T00:05:03;2.60;98.50
612;DHT22;293;53.888;11.464;2023-02-26T00:07:31;2.60;98.50
612;DHT22;293;53.888;11.464;2023-02-26T00:10:00;2.50;98.30
612;DHT22;293;53.888;11.464;2023-02-26T00:12:27;2.50;98.60
612;DHT22;293;53.888;11.464;2023-02-26T00:14:55;2.60;98.70
612;DHT22;293;53.888;11.464;2023-02-26T00:17:35;2.60;99.00
612;DHT22;293;53.888;11.464;2023-02-26T00:20:05;2.50;99.30
612;DHT22;293;53.888;11.464;2023-02-26T00:22:33;2.50;99.50
612;DHT22;293;53.888;11.464;2023-02-26T00:25:02;2.50;99.90
612;DHT22;293;53.888;11.464;2023-02-26T00:27:29;2.50;99.90
612;DHT22;293;53.888;11.464;2023-02-26T00:29:56;2.50;99.90
612;DHT22;293;53.888;11.464;2023-02-26T00:32:23;2.50;99.90
612;DHT22;293;53.888;11.464;2023-02-26T00:34:51;2.50;99.90
612;DHT22;293;53.888;11.464;2023-02-26T00:37:27;2.50;99.90
612;DHT22;293;53.888;11.464;2023-02-26T00:40:07;2.50;99.90
612;DHT22;293;53.888;11.464;2023-02-26T00:42:38;2.50;99.60
612;DHT22;293;53.888;11.464;2023-02-26T00:45:07;2.50;99.60
612;DHT22;293;53.888;11.464;2023-02-26T00:47:40;2.40;99.70
612;DHT22;293;53.888;11.464;2023-02-26T00:50:15;2.50;99.80
612;DHT22;293;53.888;11.464;2023-02-26T00:52:49;2.40;99.60
612;DHT22;293;53.888;11.464;2023-02-26T00:55:19;2.40;99.50
612;DHT22;293;53.888;11.464;2023-02-26T00:57:46;2.30;99.70
612;DHT22;293;53.888;11.464;2023-02-26T01:00:14;2.30;99.40
612;DHT22;293;53.888;11.464;2023-02-26T01:02:41;2.30;99.40
612;DHT22;293;53.888;11.464;2023-02-26T01:05:09;2.30;99.50
612;DHT22;293;53.888;11.464;2023-02-26T01:07:40;2.30;99.70
612;DHT22;293;53.888;11.464;2023-02-26T01:10:10;2.40;99.60
612;DHT22;293;53.888;11.464;2023-02-26T01:12:40;2.30;99.50
612;DHT22;293;53.888;11.464;2023-02-26T01:15:09;2.30;99.50
612;DHT22;293;53.888;11.464;2023-02-26T01:17:41;2.30;99.40
612;DHT22;293;53.888;11.464;2023-02-26T01:20:15;2.30;99.50
612;DHT22;293;53.888;11.464;2023-02-26T01:22:46;2.20;99.50
612;DHT22;293;53.888;11.464;2023-02-26T01:25:18;2.30;99.50
612;DHT22;293;53.888;11.464;2023-02-26T01:27:48;2.30;99.50
612;DHT22;293;53.888;11.464;2023-02-26T01:30:16;2.30;99.30
612;DHT22;293;53.888;11.464;2023-02-26T01:32:47;2.30;99.10
612;DHT22;293;53.888;11.464;2023-02-26T01:35:36;2.30;99.20
612;DHT22;293;53.888;11.464;2023-02-26T01:38:14;2.30;99.10
612;DHT22;293;53.888;11.464;2023-02-26T01:41:24;2.30;99.20
612;DHT22;293;53.888;11.464;2023-02-26T01:44:02;2.20;99.30
612;DHT22;293;53.888;11.464;2023-02-26T01:46:35;2.20;99.60
612;DHT22;293;53.888;11.464;2023-02-26T01:49:04;2.30;99.40
612;DHT22;293;53.888;11.464;2023-02-26T01:51:47;2.30;99.10
612;DHT22;293;53.888;11.464;2023-02-26T01:54:15;2.30;99.10
612;DHT22;293;53.888;11.464;2023-02-26T01:56:44;2.20;99.00
612;DHT22;293;53.888;11.464;2023-02-26T01:59:15;2.20;99.30
612;DHT22;293;53.888;11.464;2023-02-26T02:01:49;2.20;99.20
612;DHT22;293;53.888;11.464;2023-02-26T02:04:18;2.20;99.20
612;DHT22;293;53.888;11.464;2023-02-26T02:06:45;2.10;99.40
612;DHT22;293;53.888;11.464;2023-02-26T02:09:12;2.10;99.60
612;DHT22;293;53.888;11.464;2023-02-26T02:11:51;2.00;99.70
612;DHT22;293;53.888;11.464;2023-02-26T02:14:26;2.00;99.80
612;DHT22;293;53.888;11.464;2023-02-26T02:17:00;2.00;99.90
612;DHT22;293;53.888;11.464;2023-02-26T02:19:55;1.90;99.90
612;DHT22;293;53.888;11.464;2023-02-26T02:22:39;1.90;99.90
612;DHT22;293;53.888;11.464;2023-02-26T02:25:19;1.80;99.90
612;DHT22;293;53.888;11.464;2023-02-26T02:27:57;1.70;99.90
612;DHT22;293;53.888;11.464;2023-02-26T02:30:32;1.70;99.90
612;DHT22;293;53.888;11.464;2023-02-26T02:33:04;1.70;99.90
612;DHT22;293;53.888;11.464;2023-02-26T02:35:38;1.70;99.90
612;DHT22;293;53.888;11.464;2023-02-26T02:38:10;1.60;99.90
612;DHT22;293;53.888;11.464;2023-02-26T02:40:41;1.60;99.90
612;DHT22;293;53.888;11.464;2023-02-26T02:43:12;1.50;99.90
612;DHT22;293;53.888;11.464;2023-02-26T02:45:42;1.50;99.90
612;DHT22;293;53.888;11.464;2023-02-26T02:48:17;1.60;99.90
612;DHT22;293;53.888;11.464;2023-02-26T02:50:49;1.50;99.90
612;DHT22;293;53.888;11.464;2023-02-26T02:53:20;1.50;99.90
612;DHT22;293;53.888;11.464;2023-02-26T02:55:52;1.50;99.90
612;DHT22;293;53.888;11.464;2023-02-26T02:58:22;1.50;99.90
612;DHT22;293;53.888;11.464;2023-02-26T03:00:55;1.50;99.90
612;DHT22;293;53.888;11.464;2023-02-26T03:03:29;1.50;99.90
612;DHT22;293;53.888;11.464;2023-02-26T03:05:57;1.40;99.90
612;DHT22;293;53.888;11.464;2023-02-26T03:08:26;1.50;99.90
612;DHT22;293;53.888;11.464;2023-02-26T03:10:54;1.50;99.90
612;DHT22;293;53.888;11.464;2023-02-26T03:13:23;1.50;99.90
612;DHT22;293;53.888;11.464;2023-02-26T03:16:00;1.40;99.90
612;DHT22;293;53.888;11.464;2023-02-26T03:18:38;1.40;99.90
612;DHT22;293;53.888;11.464;2023-02-26T03:21:11;1.40;99.90
612;DHT22;293;53.888;11.464;2023-02-26T03:23:45;1.40;99.90
612;DHT22;293;53.888;11.464;2023-02-26T03:26:19;1.30;99.90
612;DHT22;293;53.888;11.464;2023-02-26T03:28:53;1.20;99.90
612;DHT22;293;53.888;11.464;2023-02-26T03:31:23;1.30;99.90
612;DHT22;293;53.888;11.464;2023-02-26T03:33:58;1.20;99.90
612;DHT22;293;53.888;11.464;2023-02-26T03:36:29;1.30;99.90
612;DHT22;293;53.888;11.464;2023-02-26T03:39:02;1.30;99.90
612;DHT22;293;53.888;11.464;2023-02-26T03:41:33;1.30;99.90
612;DHT22;293;53.888;11.464;2023-02-26T03:44:07;1.30;99.90
612;DHT22;293;53.888;11.464;2023-02-26T03:46:39;1.30;99.90
612;DHT22;293;53.888;11.464;2023-02-26T03:49:13;1.20;99.90
612;DHT22;293;53.888;11.464;2023-02-26T03:51:41;1.20;99.90
612;DHT22;293;53.888;11.464;2023-02-26T03:54:12;1.20;99.90
612;DHT22;293;53.888;11.464;2023-02-26T03:56:43;1.20;99.90
612;DHT22;293;53.888;11.464;2023-02-26T03:59:11;1.30;99.90
612;DHT22;293;53.888;11.464;2023-02-26T04:01:40;1.20;99.90
612;DHT22;293;53.888;11.464;2023-02-26T04:04:13;1.20;99.90
612;DHT22;293;53.888;11.464;2023-02-26T04:06:41;1.20;99.90
612;DHT22;293;53.888;11.464;2023-02-26T04:09:09;1.10;99.90
612;DHT22;293;53.888;11.464;2023-02-26T04:11:36;1.10;99.90
612;DHT22;293;53.888;11.464;2023-02-26T04:14:04;1.10;99.90
612;DHT22;293;53.888;11.464;2023-02-26T04:16:31;1.10;99.90
612;DHT22;293;53.888;11.464;2023-02-26T04:18:58;1.10;99.90
612;DHT22;293;53.888;11.464;2023-02-26T04:21:26;1.00;99.90
612;DHT22;293;53.888;11.464;2023-02-26T04:23:53;1.10;99.90
612;DHT22;293;53.888;11.464;2023-02-26T04:26:19;1.00;99.90
612;DHT22;293;53.888;11.464;2023-02-26T04:28:46;1.10;99.90
612;DHT22;293;53.888;11.464;2023-02-26T04:31:13;1.10;99.90
612;DHT22;293;53.888;11.464;2023-02-26T04:33:40;1.10;99.90
612;DHT22;293;53.888;11.464;2023-02-26T04:36:08;1.10;99.90
612;DHT22;293;53.888;11.464;2023-02-26T04:38:36;1.10;99.90
612;DHT22;293;53.888;11.464;2023-02-26T04:41:04;1.10;99.90
612;DHT22;293;53.888;11.464;2023-02-26T04:43:31;1.00;99.90
612;DHT22;293;53.888;11.464;2023-02-26T04:45:57;1.00;99.90
612;DHT22;293;53.888;11.464;2023-02-26T04:48:24;1.00;99.90
612;DHT22;293;53.888;11.464;2023-02-26T04:50:51;1.00;99.90
612;DHT22;293;53.888;11.464;2023-02-26T04:53:18;1.10;99.90
612;DHT22;293;53.888;11.464;2023-02-26T04:55:48;1.00;99.90
612;DHT22;293;53.888;11.464;2023-02-26T04:58:15;1.00;99.90
612;DHT22;293;53.888;11.464;2023-02-26T05:00:42;0.90;99.90
612;DHT22;293;53.888;11.464;2023-02-26T05:03:09;0.90;99.90
612;DHT22;293;53.888;11.464;2023-02-26T05:05:38;0.90;99.90
612;DHT22;293;53.888;11.464;2023-02-26T05:08:04;0.80;99.90
612;DHT22;293;53.888;11.464;2023-02-26T05:10:31;0.80;99.90
612;DHT22;293;53.888;11.464;2023-02-26T05:13:00;0.90;99.90
612;DHT22;293;53.888;11.464;2023-02-26T05:15:27;0.80;99.90
612;DHT22;293;53.888;11.464;2023-02-26T05:17:53;0.90;99.90
612;DHT22;293;53.888;11.464;2023-02-26T05:20:20;0.90;99.90
612;DHT22;293;53.888;11.464;2023-02-26T05:22:47;0.80;99.90
612;DHT22;293;53.888;11.464;2023-02-26T05:25:16;0.80;99.90
612;DHT22;293;53.888;11.464;2023-02-26T05:27:43;0.80;99.90
612;DHT22;293;53.888;11.464;2023-02-26T05:30:13;0.80;99.90
612;DHT22;293;53.888;11.464;2023-02-26T05:32:42;0.80;99.90
612;DHT22;293;53.888;11.464;2023-02-26T05:35:09;0.80;99.90
612;DHT22;293;53.888;11.464;2023-02-26T05:37:36;0.80;99.90
612;DHT22;293;53.888;11.464;2023-02-26T05:40:06;0.80;99.90
612;DHT22;293;53.888;11.464;2023-02-26T05:42:34;0.70;99.90
612;DHT22;293;53.888;11.464;2023-02-26T05:45:02;0.80;99.90
612;DHT22;293;53.888;11.464;2023-02-26T05:47:32;0.80;99.90
612;DHT22;293;53.888;11.464;2023-02-26T05:49:59;0.80;99.90
612;DHT22;293;53.888;11.464;2023-02-26T05:52:26;0.70;99.90
612;DHT22;293;53.888;11.464;2023-02-26T05:54:53;0.80;99.90
612;DHT22;293;53.888;11.464;2023-02-26T05:57:20;0.80;99.90
612;DHT22;293;53.888;11.464;2023-02-26T05:59:47;0.90;99.90
612;DHT22;293;53.888;11.464;2023-02-26T06:02:14;0.70;99.90
612;DHT22;293;53.888;11.464;2023-02-26T06:04:42;0.80;99.90
612;DHT22;293;53.888;11.464;2023-02-26T06:07:09;0.80;99.90
612;DHT22;293;53.888;11.464;2023-02-26T06:09:36;0.80;99.90
612;DHT22;293;53.888;11.464;2023-02-26T06:12:03;0.80;99.90
612;DHT22;293;53.888;11.464;2023-02-26T06:14:31;0.80;99.90
612;DHT22;293;53.888;11.464;2023-02-26T06:16:58;0.90;99.90
612;DHT22;293;53.888;11.464;2023-02-26T06:19:25;0.90;99.90
612;DHT22;293;53.888;11.464;2023-02-26T06:21:53;0.90;99.90
612;DHT22;293;53.888;11.464;2023-02-26T06:24:20;0.90;99.90
612;DHT22;293;53.888;11.464;2023-02-26T06:26:47;0.90;99.90
612;DHT22;293;53.888;11.464;2023-02-26T06:29:14;0.90;99.90
612;DHT22;293;53.888;11.464;2023-02-26T06:31:42;0.90;99.90
612;DHT22;293;53.888;11.464;2023-02-26T06:34:09;0.90;99.90
612;DHT22;293;53.888;11.464;2023-02-26T06:36:36;1.00;99.90
612;DHT22;293;53.888;11.464;2023-02-26T06:39:05;1.00;99.90
612;DHT22;293;53.888;11.464;2023-02-26T06:41:32;1.00;99.90
612;DHT22;293;53.888;11.464;2023-02-26T06:43:59;1.00;99.90
612;DHT22;293;53.888;11.464;2023-02-26T06:46:26;1.00;99.90
612;DHT22;293;53.888;11.464;2023-02-26T06:48:53;1.10;99.90
612;DHT22;293;53.888;11.464;2023-02-26T06:51:20;1.10;99.90
612;DHT22;293;53.888;11.464;2023-02-26T06:53:47;1.20;99.90
612;DHT22;293;53.888;11.464;2023-02-26T06:56:15;1.20;99.90
612;DHT22;293;53.888;11.464;2023-02-26T06:58:42;1.30;99.90
612;DHT22;293;53.888;11.464;2023-02-26T07:01:09;1.30;99.90
612;DHT22;293;53.888;11.464;2023-02-26T07:03:36;1.40;99.90
612;DHT22;293;53.888;11.464;2023-02-26T07:06:03;1.30;99.90
612;DHT22;293;53.888;11.464;2023-02-26T07:08:32;1.40;99.90
612;DHT22;293;53.888;11.464;2023-02-26T07:10:59;1.30;99.90
612;DHT22;293;53.888;11.464;2023-02-26T07:13:27;1.40;99.90
612;DHT22;293;53.888;11.464;2023-02-26T07:15:54;1.50;99.90
612;DHT22;293;53.888;11.464;2023-02-26T07:18:21;1.40;99.90
612;DHT22;293;53.888;11.464;2023-02-26T07:20:48;1.50;99.90
612;DHT22;293;53.888;11.464;2023-02-26T07:23:15;1.60;99.90
612;DHT22;293;53.888;11.464;2023-02-26T07:25:43;1.50;99.90
612;DHT22;293;53.888;11.464;2023-02-26T07:28:09;1.50;99.90
612;DHT22;293;53.888;11.464;2023-02-26T07:30:38;1.50;99.90
612;DHT22;293;53.888;11.464;2023-02-26T07:33:06;1.60;99.90
612;DHT22;293;53.888;11.464;2023-02-26T07:35:33;1.70;99.90
612;DHT22;293;53.888;11.464;2023-02-26T07:38:01;1.70;99.90
612;DHT22;293;53.888;11.464;2023-02-26T07:40:28;1.70;99.90
612;DHT22;293;53.888;11.464;2023-02-26T07:42:55;1.80;99.90
612;DHT22;293;53.888;11.464;2023-02-26T07:45:22;1.80;99.90
612;DHT22;293;53.888;11.464;2023-02-26T07:47:51;1.80;99.90
612;DHT22;293;53.888;11.464;2023-02-26T07:50:19;1.90;99.90
612;DHT22;293;53.888;11.464;2023-02-26T07:52:50;1.90;99.90
612;DHT22;293;53.888;11.464;2023-02-26T07:55:17;1.90;99.90
612;DHT22;293;53.888;11.464;2023-02-26T07:57:44;1.90;99.90
612;DHT22;293;53.888;11.464;2023-02-26T08:00:12;1.90;99.90
612;DHT22;293;53.888;11.464;2023-02-26T08:02:39;2.00;99.90
612;DHT22;293;53.888;11.464;2023-02-26T08:05:08;2.00;99.90
612;DHT22;293;53.888;11.464;2023-02-26T08:07:35;2.00;99.90
612;DHT22;293;53.888;11.464;2023-02-26T08:10:03;2.10;99.90
612;DHT22;293;53.888;11.464;2023-02-26T08:12:30;2.10;99.90
612;DHT22;293;53.888;11.464;2023-02-26T08:14:57;2.20;99.90
612;DHT22;293;53.888;11.464;2023-02-26T08:17:24;2.20;99.90
612;DHT22;293;53.888;11.464;2023-02-26T08:19:51;2.20;99.90
612;DHT22;293;53.888;11.464;2023-02-26T08:22:20;2.30;99.90
612;DHT22;293;53.888;11.464;2023-02-26T08:24:48;2.40;99.90
612;DHT22;293;53.888;11.464;2023-02-26T08:27:15;2.50;99.90
612;DHT22;293;53.888;11.464;2023-02-26T08:29:42;2.40;99.90
612;DHT22;293;53.888;11.464;2023-02-26T08:32:10;2.40;99.90
612;DHT22;293;53.888;11.464;2023-02-26T08:34:37;2.50;99.90
612;DHT22;293;53.888;11.464;2023-02-26T08:37:04;2.60;99.90
612;DHT22;293;53.888;11.464;2023-02-26T08:39:35;2.60;99.90
612;DHT22;293;53.888;11.464;2023-02-26T08:42:04;2.50;99.90
612;DHT22;293;53.888;11.464;2023-02-26T08:44:31;2.60;99.90
612;DHT22;293;53.888;11.464;2023-02-26T08:46:58;2.60;99.90
612;DHT22;293;53.888;11.464;2023-02-26T08:49:25;2.70;99.90
612;DHT22;293;53.888;11.464;2023-02-26T08:51:52;2.60;99.90
612;DHT22;293;53.888;11.464;2023-02-26T08:54:19;2.70;99.90
612;DHT22;293;53.888;11.464;2023-02-26T08:56:47;2.70;99.90
612;DHT22;293;53.888;11.464;2023-02-26T08:59:14;2.70;99.90
612;DHT22;293;53.888;11.464;2023-02-26T09:01:41;2.80;99.90
612;DHT22;293;53.888;11.464;2023-02-26T09:04:08;2.80;99.60
612;DHT22;293;53.888;11.464;2023-02-26T09:06:35;2.90;99.70
612;DHT22;293;53.888;11.464;2023-02-26T09:09:02;2.80;99.90
612;DHT22;293;53.888;11.464;2023-02-26T09:11:29;3.00;99.90
612;DHT22;293;53.888;11.464;2023-02-26T09:13:58;3.00;99.50
612;DHT22;293;53.888;11.464;2023-02-26T09:16:26;2.90;98.40
612;DHT22;293;53.888;11.464;2023-02-26T09:18:54;2.90;98.00
612;DHT22;293;53.888;11.464;2023-02-26T09:21:21;2.90;97.90
612;DHT22;293;53.888;11.464;2023-02-26T09:23:48;3.00;97.90
612;DHT22;293;53.888;11.464;2023-02-26T09:26:15;2.90;98.10
612;DHT22;293;53.888;11.464;2023-02-26T09:28:42;2.90;98.20
612;DHT22;293;53.888;11.464;2023-02-26T09:31:10;2.90;97.90
612;DHT22;293;53.888;11.464;2023-02-26T09:33:37;3.00;97.60
612;DHT22;293;53.888;11.464;2023-02-26T09:36:05;2.90;97.70
612;DHT22;293;53.888;11.464;2023-02-26T09:38:32;3.00;98.00
612;DHT22;293;53.888;11.464;2023-02-26T09:41:02;3.00;97.50
612;DHT22;293;53.888;11.464;2023-02-26T09:43:54;3.10;97.50
612;DHT22;293;53.888;11.464;2023-02-26T09:46:33;3.00;97.30
612;DHT22;293;53.888;11.464;2023-02-26T09:49:10;3.00;96.70
612;DHT22;293;53.888;11.464;2023-02-26T09:51:40;3.20;96.20
612;DHT22;293;53.888;11.464;2023-02-26T09:54:15;3.10;95.20
612;DHT22;293;53.888;11.464;2023-02-26T09:56:44;3.20;95.20
612;DHT22;293;53.888;11.464;2023-02-26T09:59:11;3.20;94.70
612;DHT22;293;53.888;11.464;2023-02-26T10:01:43;3.20;94.90
612;DHT22;293;53.888;11.464;2023-02-26T10:07:05;3.30;95.40
612;DHT22;293;53.888;11.464;2023-02-26T10:09:44;3.30;95.60
612;DHT22;293;53.888;11.464;2023-02-26T10:12:16;3.20;95.60
612;DHT22;293;53.888;11.464;2023-02-26T10:14:49;3.20;96.20
612;DHT22;293;53.888;11.464;2023-02-26T10:17:22;3.20;96.30
612;DHT22;293;53.888;11.464;2023-02-26T10:19:55;3.20;96.70
612;DHT22;293;53.888;11.464;2023-02-26T10:22:26;3.30;97.10
612;DHT22;293;53.888;11.464;2023-02-26T10:24:57;3.30;97.50
612;DHT22;293;53.888;11.464;2023-02-26T10:27:37;3.30;97.90
612;DHT22;293;53.888;11.464;2023-02-26T10:30:09;3.40;98.10
612;DHT22;293;53.888;11.464;2023-02-26T10:32:44;3.50;97.70
612;DHT22;293;53.888;11.464;2023-02-26T10:35:16;3.50;97.20
612;DHT22;293;53.888;11.464;2023-02-26T10:37:47;3.50;97.40
612;DHT22;293;53.888;11.464;2023-02-26T10:40:17;3.60;97.80
612;DHT22;293;53.888;11.464;2023-02-26T10:42:47;3.70;97.50
612;DHT22;293;53.888;11.464;2023-02-26T10:45:26;3.70;97.30
612;DHT22;293;53.888;11.464;2023-02-26T10:48:03;3.70;97.20
612;DHT22;293;53.888;11.464;2023-02-26T10:50:35;3.70;97.80
612;DHT22;293;53.888;11.464;2023-02-26T10:53:02;3.80;98.50
612;DHT22;293;53.888;11.464;2023-02-26T10:55:37;3.80;98.60
612;DHT22;293;53.888;11.464;2023-02-26T10:58:11;3.70;98.50
612;DHT22;293;53.888;11.464;2023-02-26T11:00:40;3.80;98.30
612;DHT22;293;53.888;11.464;2023-02-26T11:03:13;3.70;97.80
612;DHT22;293;53.888;11.464;2023-02-26T11:05:42;3.60;98.00
612;DHT22;293;53.888;11.464;2023-02-26T11:08:14;3.60;98.30
612;DHT22;293;53.888;11.464;2023-02-26T11:10:47;3.60;98.50
612;DHT22;293;53.888;11.464;2023-02-26T11:13:16;3.60;98.80
612;DHT22;293;53.888;11.464;2023-02-26T11:15:46;3.80;98.40
612;DHT22;293;53.888;11.464;2023-02-26T11:18:19;3.70;98.40
612;DHT22;293;53.888;11.464;2023-02-26T11:20:48;3.70;98.40
612;DHT22;293;53.888;11.464;2023-02-26T11:23:19;3.70;98.10
612;DHT22;293;53.888;11.464;2023-02-26T11:25:52;3.70;98.30
612;DHT22;293;53.888;11.464;2023-02-26T11:28:21;3.80;98.30
612;DHT22;293;53.888;11.464;2023-02-26T11:30:51;3.90;98.20
612;DHT22;293;53.888;11.464;2023-02-26T11:33:23;3.90;98.20
612;DHT22;293;53.888;11.464;2023-02-26T11:35:55;3.90;98.20
612;DHT22;293;53.888;11.464;2023-02-26T11:38:25;3.80;98.00
612;DHT22;293;53.888;11.464;2023-02-26T11:40:54;3.90;97.90
612;DHT22;293;53.888;11.464;2023-02-26T11:43:23;4.00;97.60
612;DHT22;293;53.888;11.464;2023-02-26T11:45:54;4.00;97.80
612;DHT22;293;53.888;11.464;2023-02-26T11:48:26;4.10;98.00
612;DHT22;293;53.888;11.464;2023-02-26T11:50:56;4.10;97.90
612;DHT22;293;53.888;11.464;2023-02-26T11:53:25;4.10;97.90
612;DHT22;293;53.888;11.464;2023-02-26T11:55:59;4.20;97.90
612;DHT22;293;53.888;11.464;2023-02-26T11:58:29;4.40;97.80
612;DHT22;293;53.888;11.464;2023-02-26T12:01:01;4.50;97.10
612;DHT22;293;53.888;11.464;2023-02-26T12:03:32;4.60;97.00
612;DHT22;293;53.888;11.464;2023-02-26T12:06:00;4.60;96.50
612;DHT22;293;53.888;11.464;2023-02-26T12:08:30;4.60;96.60
612;DHT22;293;53.888;11.464;2023-02-26T12:11:18;4.60;95.80
612;DHT22;293;53.888;11.464;2023-02-26T12:13:58;4.60;95.30
612;DHT22;293;53.888;11.464;2023-02-26T12:16:34;4.50;95.30
612;DHT22;293;53.888;11.464;2023-02-26T12:19:10;4.50;95.70
612;DHT22;293;53.888;11.464;2023-02-26T12:22:17;4.60;95.70
612;DHT22;293;53.888;11.464;2023-02-26T12:31:34;4.70;95.20
612;DHT22;293;53.888;11.464;2023-02-26T12:34:20;4.70;95.30
612;DHT22;293;53.888;11.464;2023-02-26T12:37:08;4.80;94.90
612;DHT22;293;53.888;11.464;2023-02-26T12:39:48;4.90;94.90
612;DHT22;293;53.888;11.464;2023-02-26T12:42:27;4.80;94.60
612;DHT22;293;53.888;11.464;2023-02-26T12:45:21;4.90;95.20
612;DHT22;293;53.888;11.464;2023-02-26T12:48:15;4.90;94.90
612;DHT22;293;53.888;11.464;2023-02-26T12:50:58;5.10;95.00
612;DHT22;293;53.888;11.464;2023-02-26T12:53:41;5.20;94.70
612;DHT22;293;53.888;11.464;2023-02-26T12:56:28;5.20;94.40
612;DHT22;293;53.888;11.464;2023-02-26T12:59:09;5.00;93.90
612;DHT22;293;53.888;11.464;2023-02-26T13:01:52;5.00;94.20
612;DHT22;293;53.888;11.464;2023-02-26T13:04:40;5.00;94.30
612;DHT22;293;53.888;11.464;2023-02-26T13:07:42;5.00;94.80
612;DHT22;293;53.888;11.464;2023-02-26T13:10:20;5.10;94.50
612;DHT22;293;53.888;11.464;2023-02-26T13:12:58;5.00;94.30
612;DHT22;293;53.888;11.464;2023-02-26T13:15:52;5.00;94.50
612;DHT22;293;53.888;11.464;2023-02-26T13:18:26;5.20;94.90
612;DHT22;293;53.888;11.464;2023-02-26T13:20:59;5.30;94.50
612;DHT22;293;53.888;11.464;2023-02-26T13:23:33;5.40;94.20
612;DHT22;293;53.888;11.464;2023-02-26T13:26:05;5.30;93.80
612;DHT22;293;53.888;11.464;2023-02-26T13:28:38;5.30;93.60
612;DHT22;293;53.888;11.464;2023-02-26T13:31:09;5.20;94.20
612;DHT22;293;53.888;11.464;2023-02-26T13:33:38;5.20;94.30
612;DHT22;293;53.888;11.464;2023-02-26T13:36:06;4.90;94.60
612;DHT22;293;53.888;11.464;2023-02-26T13:38:45;4.80;95.20
612;DHT22;293;53.888;11.464;2023-02-26T13:41:16;4.90;95.50
612;DHT22;293;53.888;11.464;2023-02-26T13:44:04;4.80;95.30
612;DHT22;293;53.888;11.464;2023-02-26T13:46:44;4.90;95.40
612;DHT22;293;53.888;11.464;2023-02-26T13:49:17;4.80;95.30
612;DHT22;293;53.888;11.464;2023-02-26T13:51:48;4.70;95.10
612;DHT22;293;53.888;11.464;2023-02-26T13:54:34;4.60;95.20
612;DHT22;293;53.888;11.464;2023-02-26T13:57:19;4.50;95.20
612;DHT22;293;53.888;11.464;2023-02-26T13:59:52;4.60;95.40
612;DHT22;293;53.888;11.464;2023-02-26T14:02:50;4.60;95.20
612;DHT22;293;53.888;11.464;2023-02-26T14:08:48;4.70;95.50
612;DHT22;293;53.888;11.464;2023-02-26T14:11:57;4.60;96.20
612;DHT22;293;53.888;11.464;2023-02-26T14:14:29;4.70;96.10
612;DHT22;293;53.888;11.464;2023-02-26T14:17:36;4.70;95.80
612;DHT22;293;53.888;11.464;2023-02-26T14:20:18;4.80;95.90
612;DHT22;293;53.888;11.464;2023-02-26T14:25:37;4.90;95.60
612;DHT22;293;53.888;11.464;2023-02-26T14:28:32;4.90;95.70
612;DHT22;293;53.888;11.464;2023-02-26T14:31:11;4.80;95.60
612;DHT22;293;53.888;11.464;2023-02-26T14:33:42;4.80;95.40
612;DHT22;293;53.888;11.464;2023-02-26T14:36:18;4.70;95.40
612;DHT22;293;53.888;11.464;2023-02-26T14:38:47;4.70;95.90
612;DHT22;293;53.888;11.464;2023-02-26T14:41:24;4.70;96.00
612;DHT22;293;53.888;11.464;2023-02-26T14:43:59;4.60;95.90
612;DHT22;293;53.888;11.464;2023-02-26T14:46:26;4.50;95.80
612;DHT22;293;53.888;11.464;2023-02-26T14:48:54;4.60;96.00
612;DHT22;293;53.888;11.464;2023-02-26T14:51:31;4.50;96.10
612;DHT22;293;53.888;11.464;2023-02-26T14:54:26;4.50;96.10
612;DHT22;293;53.888;11.464;2023-02-26T14:57:01;4.40;96.50
612;DHT22;293;53.888;11.464;2023-02-26T14:59:53;4.40;96.90
612;DHT22;293;53.888;11.464;2023-02-26T15:02:29;4.40;97.30
612;DHT22;293;53.888;11.464;2023-02-26T15:05:31;4.30;96.70
612;DHT22;293;53.888;11.464;2023-02-26T15:11:16;4.30;97.30
612;DHT22;293;53.888;11.464;2023-02-26T15:14:02;4.30;96.90
612;DHT22;293;53.888;11.464;2023-02-26T15:16:41;4.20;97.10
612;DHT22;293;53.888;11.464;2023-02-26T15:19:20;4.10;97.50
612;DHT22;293;53.888;11.464;2023-02-26T15:22:02;4.10;97.40
612;DHT22;293;53.888;11.464;2023-02-26T15:24:34;4.20;97.50
612;DHT22;293;53.888;11.464;2023-02-26T15:27:03;4.10;97.80
612;DHT22;293;53.888;11.464;2023-02-26T15:29:34;4.20;98.10
612;DHT22;293;53.888;11.464;2023-02-26T15:32:14;4.10;98.30
612;DHT22;293;53.888;11.464;2023-02-26T15:34:44;4.20;98.50
612;DHT22;293;53.888;11.464;2023-02-26T15:37:19;4.20;98.70
612;DHT22;293;53.888;11.464;2023-02-26T15:39:48;4.30;98.70
612;DHT22;293;53.888;11.464;2023-02-26T15:42:16;4.20;99.00
612;DHT22;293;53.888;11.464;2023-02-26T15:44:44;4.20;99.20
612;DHT22;293;53.888;11.464;2023-02-26T15:47:15;4.20;99.20
612;DHT22;293;53.888;11.464;2023-02-26T15:49:44;4.20;99.80
612;DHT22;293;53.888;11.464;2023-02-26T15:52:17;4.20;99.80
612;DHT22;293;53.888;11.464;2023-02-26T15:54:48;4.10;99.70
612;DHT22;293;53.888;11.464;2023-02-26T15:57:17;4.10;99.80
612;DHT22;293;53.888;11.464;2023-02-26T15:59:46;4.10;99.90
612;DHT22;293;53.888;11.464;2023-02-26T16:02:17;4.10;99.90
612;DHT22;293;53.888;11.464;2023-02-26T16:04:44;4.00;99.90
612;DHT22;293;53.888;11.464;2023-02-26T16:07:12;4.00;99.90
612;DHT22;293;53.888;11.464;2023-02-26T16:09:41;3.90;99.90
612;DHT22;293;53.888;11.464;2023-02-26T16:12:11;3.90;99.90
612;DHT22;293;53.888;11.464;2023-02-26T16:14:43;3.80;99.90
612;DHT22;293;53.888;11.464;2023-02-26T16:17:15;3.90;99.90
612;DHT22;293;53.888;11.464;2023-02-26T16:19:46;3.90;99.90
612;DHT22;293;53.888;11.464;2023-02-26T16:22:18;3.90;99.90
612;DHT22;293;53.888;11.464;2023-02-26T16:24:51;3.90;99.90
612;DHT22;293;53.888;11.464;2023-02-26T16:27:19;3.90;99.90
612;DHT22;293;53.888;11.464;2023-02-26T16:29:49;3.80;99.90
612;DHT22;293;53.888;11.464;2023-02-26T16:32:19;3.80;99.90
612;DHT22;293;53.888;11.464;2023-02-26T16:34:49;3.70;99.90
612;DHT22;293;53.888;11.464;2023-02-26T16:37:22;3.70;99.90
612;DHT22;293;53.888;11.464;2023-02-26T16:39:54;3.60;99.90
612;DHT22;293;53.888;11.464;2023-02-26T16:42:32;3.60;99.90
612;DHT22;293;53.888;11.464;2023-02-26T16:45:16;3.60;99.90
612;DHT22;293;53.888;11.464;2023-02-26T16:47:48;3.50;99.90
612;DHT22;293;53.888;11.464;2023-02-26T16:50:18;3.50;99.90
612;DHT22;293;53.888;11.464;2023-02-26T16:52:51;3.50;99.90
612;DHT22;293;53.888;11.464;2023-02-26T16:55:19;3.40;99.90
612;DHT22;293;53.888;11.464;2023-02-26T16:57:46;3.40;99.90
612;DHT22;293;53.888;11.464;2023-02-26T17:00:16;3.40;99.90
612;DHT22;293;53.888;11.464;2023-02-26T17:02:53;3.30;99.90
612;DHT22;293;53.888;11.464;2023-02-26T17:05:22;3.30;99.90
612;DHT22;293;53.888;11.464;2023-02-26T17:07:54;3.30;99.90
612;DHT22;293;53.888;11.464;2023-02-26T17:10:29;3.40;99.90
612;DHT22;293;53.888;11.464;2023-02-26T17:13:03;3.40;99.90
612;DHT22;293;53.888;11.464;2023-02-26T17:15:36;3.40;99.90
612;DHT22;293;53.888;11.464;2023-02-26T17:18:05;3.30;99.90
612;DHT22;293;53.888;11.464;2023-02-26T17:20:33;3.30;99.90
612;DHT22;293;53.888;11.464;2023-02-26T17:23:01;3.30;99.90